Teruhou Maru No.22 — JD3202 — position and weather

sailwx.info

Track history (hours):
 
Tides and Currents Weather Stations Pressure Air Temp Water Temp Dewpoint Dewpoint Depression Visibility Wind Speed Wind Dir Waves Ship Positions

Teruhou Maru No.22

Last reported at 2016-Sep-25 07:31 UTC. Time now 2016-Sep-25 08:52 UTC.
Position N 34°21' E 134°59'.

Length 76 m; draft 5 m.

Type: Cargo ship. MMSI: 431002552.

Date/timePositionNaut miles runAvg speedWind from/ knotsBaromVisibWave heightAir tempDewpointWater temp
2016-Sep-25 07:31N 34°21' E 134°59'16 0.3
2016-Sep-23 06:33N 34°36' E 135°03'12 5.8
2016-Sep-23 04:33N 34°42' E 135°15'0 0.0
2016-Sep-23 03:15N 34°42' E 135°15'0 0.0
2016-Sep-23 02:15N 34°42' E 135°15'0 0.0
2016-Sep-23 01:27N 34°42' E 135°15'0 0.0
2016-Sep-23 00:33N 34°42' E 135°15'5 5.4
2016-Sep-22 23:33N 34°37' E 135°13'8 0.2
2016-Sep-21 05:33N 34°36' E 135°23'4 0.1
2016-Sep-19 02:11N 34°34' E 135°27'0 0.0
2016-Sep-19 00:31N 34°34' E 135°27'26 5.2
2016-Sep-18 19:31N 34°15' E 135°07'1 0.2
2016-Sep-18 15:33N 34°15' E 135°06'0 0.0
2016-Sep-18 14:30N 34°15' E 135°06'0 0.0
2016-Sep-18 10:33N 34°15' E 135°06'0 0.0
2016-Sep-18 09:33N 34°15' E 135°06'  
2016-Sep-16 00:16N 35°56' E 140°40'0 0.0
2016-Sep-15 18:28N 35°56' E 140°40'  
Track history (hours):
 
Tides and Currents Weather Stations Pressure Air Temp Water Temp Dewpoint Dewpoint Depression Visibility Wind Speed Wind Dir Waves Ship Positions

Teruhou Maru No.22

Last reported at 2016-Sep-25 07:31 UTC. Time now 2016-Sep-25 08:52 UTC.
Position N 34°21' E 134°59'.

Length 76 m; draft 5 m.

Type: Cargo ship. MMSI: 431002552.

Date/timePositionNaut miles runAvg speedWind from/ knotsBaromVisibWave heightAir tempDewpointWater temp
2016-Sep-25 07:31N 34°21' E 134°59'16 0.3
2016-Sep-23 06:33N 34°36' E 135°03'12 5.8
2016-Sep-23 04:33N 34°42' E 135°15'0 0.0
2016-Sep-23 03:15N 34°42' E 135°15'0 0.0
2016-Sep-23 02:15N 34°42' E 135°15'0 0.0
2016-Sep-23 01:27N 34°42' E 135°15'0 0.0
2016-Sep-23 00:33N 34°42' E 135°15'5 5.4
2016-Sep-22 23:33N 34°37' E 135°13'8 0.2
2016-Sep-21 05:33N 34°36' E 135°23'4 0.1
2016-Sep-19 02:11N 34°34' E 135°27'0 0.0
2016-Sep-19 00:31N 34°34' E 135°27'26 5.2
2016-Sep-18 19:31N 34°15' E 135°07'1 0.2
2016-Sep-18 15:33N 34°15' E 135°06'0 0.0
2016-Sep-18 14:30N 34°15' E 135°06'0 0.0
2016-Sep-18 10:33N 34°15' E 135°06'0 0.0
2016-Sep-18 09:33N 34°15' E 135°06'  
2016-Sep-16 00:16N 35°56' E 140°40'0 0.0
2016-Sep-15 18:28N 35°56' E 140°40'  

Dump ship's entire track history